createdAt,value
2023-03-31T00:01:43.819Z,0.76
2023-03-31T00:04:44.526Z,0.74
2023-03-31T00:07:52.347Z,0.72
2023-03-31T00:11:00.639Z,0.66
2023-03-31T00:14:08.097Z,0.66
2023-03-31T00:17:14.475Z,0.63
2023-03-31T00:20:22.534Z,0.60
2023-03-31T00:23:29.850Z,0.57
2023-03-31T00:26:37.829Z,0.54
2023-03-31T00:29:43.335Z,0.51
2023-03-31T00:32:50.643Z,0.50
2023-03-31T00:35:58.454Z,0.49
2023-03-31T00:39:05.162Z,0.46
2023-03-31T00:42:11.186Z,0.44
2023-03-31T00:45:37.382Z,0.41
2023-03-31T00:48:44.483Z,0.38
2023-03-31T00:51:49.759Z,0.35
2023-03-31T00:54:54.736Z,0.31
2023-03-31T00:58:03.108Z,0.29
2023-03-31T01:01:10.940Z,0.28
2023-03-31T01:04:18.912Z,0.28
2023-03-31T01:07:40.217Z,0.27
2023-03-31T01:10:48.655Z,0.22
2023-03-31T01:13:57.032Z,0.18
2023-03-31T01:17:02.716Z,0.14
2023-03-31T01:20:35.775Z,0.13
2023-03-31T01:24:14.004Z,0.09
2023-03-31T01:27:39.835Z,0.09
2023-03-31T01:30:58.985Z,0.05
2023-03-31T01:35:00.624Z,0.00
2023-03-31T01:38:45.174Z,-0.01
2023-03-31T01:42:05.959Z,-0.05
2023-03-31T01:45:45.105Z,-0.07
2023-03-31T01:49:29.297Z,-0.08
2023-03-31T01:52:45.119Z,-0.08
2023-03-31T01:56:07.043Z,-0.10
2023-03-31T01:59:20.255Z,-0.12
2023-03-31T02:02:34.814Z,-0.13
2023-03-31T02:05:44.025Z,-0.14
2023-03-31T02:08:57.468Z,-0.14
2023-03-31T02:12:03.604Z,-0.14
2023-03-31T02:15:46.752Z,-0.14
2023-03-31T02:18:48.455Z,-0.17
2023-03-31T02:21:55.979Z,-0.18
2023-03-31T02:25:02.439Z,-0.18
2023-03-31T02:28:17.804Z,-0.18
2023-03-31T02:31:33.912Z,-0.19
2023-03-31T02:34:40.312Z,-0.20
2023-03-31T02:37:45.697Z,-0.20
2023-03-31T02:40:51.854Z,-0.23
2023-03-31T02:43:58.065Z,-0.23
2023-03-31T02:47:05.894Z,-0.26
2023-03-31T02:50:14.106Z,-0.29
2023-03-31T02:53:44.903Z,-0.29
2023-03-31T02:57:30.398Z,-0.32
2023-03-31T03:01:04.977Z,-0.34
2023-03-31T03:04:27.862Z,-0.35
2023-03-31T03:07:54.929Z,-0.38
2023-03-31T03:11:35.495Z,-0.40
2023-03-31T03:15:15.513Z,-0.45
2023-03-31T03:18:22.991Z,-0.46
2023-03-31T03:21:33.634Z,-0.46
2023-03-31T03:24:41.632Z,-0.45
2023-03-31T03:27:48.695Z,-0.45
2023-03-31T03:30:55.674Z,-0.46
2023-03-31T03:34:04.323Z,-0.43
2023-03-31T03:37:10.588Z,-0.42
2023-03-31T03:40:18.961Z,-0.41
2023-03-31T03:43:25.317Z,-0.37
2023-03-31T03:46:30.606Z,-0.34
2023-03-31T03:49:37.075Z,-0.31
2023-03-31T03:52:42.776Z,-0.26
2023-03-31T03:55:50.120Z,-0.21
2023-03-31T03:58:58.212Z,-0.19
2023-03-31T04:02:04.118Z,-0.17
2023-03-31T04:05:11.555Z,-0.12
2023-03-31T04:08:17.456Z,-0.08
2023-03-31T04:11:31.896Z,-0.05
2023-03-31T04:14:39.162Z,-0.03
2023-03-31T04:17:45.326Z,0.00
2023-03-31T04:20:56.382Z,0.04
2023-03-31T04:24:11.465Z,0.10
2023-03-31T04:27:16.871Z,0.13
2023-03-31T04:30:32.105Z,0.20
2023-03-31T04:33:46.053Z,0.28
2023-03-31T04:36:56.078Z,0.33
2023-03-31T04:40:00.816Z,0.41
2023-03-31T04:43:07.270Z,0.51
2023-03-31T04:46:13.704Z,0.61
2023-03-31T04:49:20.457Z,0.72
2023-03-31T04:52:25.588Z,0.83
2023-03-31T04:55:31.441Z,0.90
2023-03-31T04:58:38.172Z,0.99
2023-03-31T05:01:47.766Z,1.08
2023-03-31T05:04:54.772Z,1.18
2023-03-31T05:08:00.868Z,1.30
2023-03-31T05:11:06.789Z,1.41
2023-03-31T05:14:13.308Z,1.51
2023-03-31T05:17:19.606Z,1.59
2023-03-31T05:20:26.673Z,1.68
2023-03-31T05:23:33.023Z,1.78
2023-03-31T05:26:39.020Z,1.90
2023-03-31T05:29:44.793Z,2.02
2023-03-31T05:32:52.676Z,2.12
2023-03-31T05:35:59.771Z,2.24
2023-03-31T05:39:08.624Z,2.36
2023-03-31T05:42:16.305Z,2.43
2023-03-31T05:45:22.987Z,2.49
2023-03-31T05:48:27.978Z,2.56
2023-03-31T05:51:35.507Z,2.60
2023-03-31T05:54:42.836Z,2.66
2023-03-31T05:57:49.318Z,2.77
2023-03-31T06:00:56.316Z,2.89
2023-03-31T06:04:04.359Z,3.00
2023-03-31T06:07:12.247Z,3.11
2023-03-31T06:10:20.107Z,3.21
2023-03-31T06:13:28.678Z,3.34
2023-03-31T06:16:36.115Z,3.44
2023-03-31T06:19:42.474Z,3.52
2023-03-31T06:22:50.535Z,3.60
2023-03-31T06:25:58.170Z,3.70
2023-03-31T06:29:03.964Z,3.79
2023-03-31T06:32:11.573Z,3.85
2023-03-31T06:35:20.054Z,3.91
2023-03-31T06:38:26.196Z,3.96
2023-03-31T06:41:33.466Z,4.00
2023-03-31T06:44:38.515Z,4.07
2023-03-31T06:47:46.620Z,4.16
2023-03-31T06:50:53.773Z,4.25
2023-03-31T06:54:00.310Z,4.36
2023-03-31T06:57:13.151Z,4.48
2023-03-31T07:00:23.203Z,4.56
2023-03-31T07:03:31.584Z,4.69
2023-03-31T07:06:38.332Z,4.77
2023-03-31T07:09:45.005Z,4.87
2023-03-31T07:12:52.490Z,4.89
2023-03-31T07:16:02.274Z,4.95
2023-03-31T07:19:11.360Z,5.00
2023-03-31T07:22:17.432Z,5.07
2023-03-31T07:25:24.242Z,5.15
2023-03-31T07:28:31.753Z,5.19
2023-03-31T07:31:38.209Z,5.26
2023-03-31T07:34:47.320Z,5.36
2023-03-31T07:37:59.395Z,5.43
2023-03-31T07:41:09.695Z,5.53
2023-03-31T07:44:15.662Z,5.64
2023-03-31T07:47:23.301Z,5.72
2023-03-31T07:50:30.822Z,5.83
2023-03-31T07:53:38.697Z,5.93
2023-03-31T07:56:45.503Z,6.03
2023-03-31T07:59:51.406Z,6.15
2023-03-31T08:02:58.384Z,6.25
2023-03-31T08:06:07.435Z,6.33
2023-03-31T08:09:15.814Z,6.44
2023-03-31T08:12:21.350Z,6.55
2023-03-31T08:15:27.419Z,6.66
2023-03-31T08:18:33.040Z,6.78
2023-03-31T08:21:38.684Z,6.88
2023-03-31T08:24:44.471Z,6.98
2023-03-31T08:27:51.094Z,7.01
2023-03-31T08:30:57.623Z,7.07
2023-03-31T08:34:03.952Z,7.21
2023-03-31T08:37:10.978Z,7.38
2023-03-31T08:40:18.445Z,7.60
2023-03-31T08:43:28.801Z,7.94
2023-03-31T08:46:35.649Z,8.27
2023-03-31T08:49:43.147Z,8.55
2023-03-31T08:53:00.962Z,8.87
2023-03-31T08:56:09.826Z,9.10
2023-03-31T08:59:16.898Z,9.34
2023-03-31T09:02:57.313Z,9.55
2023-03-31T09:06:18.060Z,9.67
2023-03-31T09:09:29.893Z,9.87
2023-03-31T09:13:02.112Z,9.99
2023-03-31T09:16:28.763Z,10.13
2023-03-31T09:19:56.565Z,10.33
2023-03-31T09:23:10.951Z,10.38
2023-03-31T09:26:19.018Z,10.32
2023-03-31T09:29:41.067Z,10.33
2023-03-31T09:32:48.269Z,10.47
2023-03-31T09:35:56.423Z,10.58
2023-03-31T09:39:05.448Z,10.74
2023-03-31T09:42:10.801Z,10.81
2023-03-31T09:45:16.285Z,10.91
2023-03-31T09:48:26.254Z,11.00
2023-03-31T09:51:37.043Z,11.03
2023-03-31T09:54:55.309Z,10.97
2023-03-31T09:58:01.236Z,10.86
2023-03-31T10:01:20.225Z,10.85
2023-03-31T10:04:33.198Z,10.90
2023-03-31T10:07:40.154Z,11.02
2023-03-31T10:10:48.496Z,11.12
2023-03-31T10:14:12.053Z,11.13
2023-03-31T10:17:22.054Z,11.17
2023-03-31T10:20:39.863Z,11.30
2023-03-31T10:23:50.720Z,11.45
2023-03-31T10:26:56.233Z,11.63
2023-03-31T10:30:02.488Z,11.74
2023-03-31T10:33:19.067Z,11.85
2023-03-31T10:36:19.518Z,12.04
2023-03-31T10:39:26.255Z,12.26
2023-03-31T10:42:36.050Z,12.51
2023-03-31T10:45:44.342Z,12.61
2023-03-31T10:48:53.254Z,12.62
2023-03-31T10:52:09.180Z,12.67
2023-03-31T10:55:16.090Z,12.76
2023-03-31T10:58:39.303Z,12.85
2023-03-31T11:02:21.278Z,12.93
2023-03-31T11:05:40.037Z,12.95
2023-03-31T11:09:06.041Z,13.02
2023-03-31T11:12:24.124Z,12.89
2023-03-31T11:15:40.530Z,12.74
2023-03-31T11:18:55.237Z,12.61
2023-03-31T11:22:20.295Z,12.57
2023-03-31T11:25:44.896Z,12.54
2023-03-31T11:29:06.986Z,12.43
2023-03-31T11:32:36.052Z,12.26
2023-03-31T11:35:55.380Z,12.20
2023-03-31T11:39:39.488Z,12.19
2023-03-31T11:42:51.969Z,12.11
2023-03-31T11:46:08.134Z,11.97
2023-03-31T11:49:19.806Z,11.95
2023-03-31T11:52:39.274Z,11.98
2023-03-31T11:55:47.403Z,11.89
2023-03-31T11:59:08.457Z,11.84
2023-03-31T12:02:30.131Z,11.80
2023-03-31T12:05:38.814Z,11.74
2023-03-31T12:08:49.279Z,11.82
2023-03-31T12:12:24.170Z,11.94
2023-03-31T12:15:41.972Z,11.98
2023-03-31T12:18:54.855Z,12.03
2023-03-31T12:22:09.176Z,12.08
2023-03-31T12:25:14.535Z,12.07
2023-03-31T12:28:21.210Z,12.05
2023-03-31T12:31:37.092Z,12.05
2023-03-31T12:34:43.956Z,12.03
2023-03-31T12:38:35.296Z,12.02
2023-03-31T12:42:08.149Z,12.01
2023-03-31T12:45:34.912Z,11.88
2023-03-31T12:49:18.344Z,11.82
2023-03-31T12:52:27.345Z,11.76
2023-03-31T12:55:52.396Z,11.68
2023-03-31T12:59:01.235Z,11.61
2023-03-31T13:02:30.152Z,11.51
2023-03-31T13:06:00.362Z,11.37
2023-03-31T13:09:15.966Z,11.30
2023-03-31T13:12:34.247Z,11.22
2023-03-31T13:15:39.506Z,11.18
2023-03-31T13:18:49.334Z,11.18
2023-03-31T13:22:14.212Z,11.19
2023-03-31T13:25:46.972Z,11.20
2023-03-31T13:28:58.218Z,11.19
2023-03-31T13:32:20.085Z,11.14
2023-03-31T13:35:38.688Z,11.13
2023-03-31T13:39:17.972Z,11.10
2023-03-31T13:43:03.073Z,11.04
2023-03-31T13:46:30.626Z,11.00
2023-03-31T13:50:16.638Z,11.02
2023-03-31T13:53:37.194Z,11.00
2023-03-31T13:57:04.621Z,10.97
2023-03-31T14:00:30.455Z,10.93
2023-03-31T14:04:03.098Z,10.91
2023-03-31T14:07:15.957Z,10.90
2023-03-31T14:10:43.248Z,10.90
2023-03-31T14:13:49.007Z,10.90
2023-03-31T14:17:15.554Z,10.92
2023-03-31T14:20:42.379Z,10.92
2023-03-31T14:24:00.716Z,10.90
2023-03-31T14:27:39.952Z,10.90
2023-03-31T14:30:59.650Z,10.89
2023-03-31T14:34:44.454Z,10.88
2023-03-31T14:37:50.205Z,10.88
2023-03-31T14:41:06.186Z,10.86
2023-03-31T14:44:14.174Z,10.85
2023-03-31T14:47:21.214Z,10.82
2023-03-31T14:50:34.238Z,10.79
2023-03-31T14:53:40.247Z,10.78
2023-03-31T14:56:52.876Z,10.75
2023-03-31T15:00:01.764Z,10.73
2023-03-31T15:03:08.978Z,10.70
2023-03-31T15:06:16.009Z,10.66
2023-03-31T15:09:21.374Z,10.63
2023-03-31T15:12:29.640Z,10.63
2023-03-31T15:15:36.263Z,10.63
2023-03-31T15:18:44.476Z,10.58
2023-03-31T15:21:52.694Z,10.54
2023-03-31T15:24:58.617Z,10.44
2023-03-31T15:28:10.952Z,10.36
2023-03-31T15:31:16.570Z,10.30
2023-03-31T15:34:44.109Z,10.26
2023-03-31T15:37:56.532Z,10.19
2023-03-31T15:41:06.942Z,10.10
2023-03-31T15:44:44.961Z,10.02
2023-03-31T15:47:51.104Z,9.98
2023-03-31T15:51:00.868Z,9.94
2023-03-31T15:54:08.870Z,9.89
2023-03-31T15:57:21.507Z,9.85
2023-03-31T16:00:34.233Z,9.81
2023-03-31T16:03:47.039Z,9.72
2023-03-31T16:07:01.382Z,9.67
2023-03-31T16:10:16.261Z,9.60
2023-03-31T16:13:24.389Z,9.50
2023-03-31T16:16:33.930Z,9.44
2023-03-31T16:19:40.511Z,9.37
2023-03-31T16:22:52.527Z,9.32
2023-03-31T16:25:58.823Z,9.27
2023-03-31T16:29:06.833Z,9.23
2023-03-31T16:32:31.411Z,9.21
2023-03-31T16:35:39.437Z,9.20
2023-03-31T16:38:45.502Z,9.22
2023-03-31T16:41:51.652Z,9.24
2023-03-31T16:45:13.146Z,9.25
2023-03-31T16:48:15.461Z,9.25
2023-03-31T16:51:15.334Z,9.26
2023-03-31T16:54:21.512Z,9.27
2023-03-31T16:57:30.024Z,9.27
2023-03-31T17:00:35.711Z,9.28
2023-03-31T17:03:44.043Z,9.29
2023-03-31T17:06:49.515Z,9.30
2023-03-31T17:09:55.545Z,9.30
2023-03-31T17:13:03.742Z,9.30
2023-03-31T17:19:19.542Z,9.30
2023-03-31T17:22:26.331Z,9.29
2023-03-31T17:25:31.816Z,9.29
2023-03-31T17:28:38.269Z,9.29
2023-03-31T17:31:43.290Z,9.27
2023-03-31T17:34:49.031Z,9.26
2023-03-31T17:37:57.790Z,9.24
2023-03-31T17:41:05.640Z,9.21
2023-03-31T17:44:14.258Z,9.18
2023-03-31T17:47:19.949Z,9.17
2023-03-31T17:50:28.387Z,9.15
2023-03-31T17:53:36.017Z,9.14
2023-03-31T17:56:43.796Z,9.13
2023-03-31T17:59:52.775Z,9.13
2023-03-31T18:03:02.196Z,9.12
2023-03-31T18:06:09.150Z,9.08
2023-03-31T18:09:19.106Z,9.08
2023-03-31T18:12:26.262Z,9.07
2023-03-31T18:15:32.867Z,9.07
2023-03-31T18:18:41.537Z,9.08
2023-03-31T18:21:48.611Z,9.07
2023-03-31T18:24:55.658Z,9.06
2023-03-31T18:28:02.299Z,9.06
2023-03-31T18:31:10.959Z,9.05
2023-03-31T18:34:19.816Z,9.05
2023-03-31T18:37:26.961Z,9.05
2023-03-31T18:40:33.684Z,9.04
2023-03-31T18:43:41.269Z,9.02
2023-03-31T18:46:47.544Z,9.00
2023-03-31T18:49:55.915Z,8.97
2023-03-31T18:53:04.571Z,8.95
2023-03-31T18:56:12.432Z,8.93
2023-03-31T18:59:21.206Z,8.92
2023-03-31T19:02:34.221Z,8.91
2023-03-31T19:05:40.903Z,8.92
2023-03-31T19:08:46.789Z,8.91
2023-03-31T19:11:53.216Z,8.91
2023-03-31T19:15:01.656Z,8.90
2023-03-31T19:18:08.691Z,8.90
2023-03-31T19:21:15.641Z,8.91
2023-03-31T19:24:21.670Z,8.92
2023-03-31T19:27:30.908Z,8.93
2023-03-31T19:30:37.576Z,8.92
2023-03-31T19:33:45.021Z,8.92
2023-03-31T19:36:51.447Z,8.91
2023-03-31T19:39:58.516Z,8.92
2023-03-31T19:43:06.262Z,8.94
2023-03-31T19:46:12.524Z,8.91
2023-03-31T19:49:19.828Z,8.90
2023-03-31T19:52:26.176Z,8.88
2023-03-31T19:55:34.445Z,8.91
2023-03-31T19:58:45.423Z,8.91
2023-03-31T20:01:52.471Z,8.93
2023-03-31T20:04:59.167Z,8.94
2023-03-31T20:08:05.628Z,8.94
2023-03-31T20:11:18.730Z,8.94
2023-03-31T20:14:25.663Z,8.92
2023-03-31T20:17:34.191Z,8.93
2023-03-31T20:20:41.750Z,8.91
2023-03-31T20:23:48.733Z,8.90
2023-03-31T20:26:54.505Z,8.90
2023-03-31T20:30:00.596Z,8.88
2023-03-31T20:33:07.354Z,8.89
2023-03-31T20:36:20.019Z,8.88
2023-03-31T20:39:26.730Z,8.86
2023-03-31T20:42:34.115Z,8.85
2023-03-31T20:45:39.874Z,8.84
2023-03-31T20:48:49.027Z,8.84
2023-03-31T20:51:56.165Z,8.81
2023-03-31T20:55:03.478Z,8.78
2023-03-31T20:58:09.707Z,8.78
2023-03-31T21:01:14.997Z,8.76
2023-03-31T21:04:23.325Z,8.75
2023-03-31T21:07:28.635Z,8.73
2023-03-31T21:10:36.497Z,8.73
2023-03-31T21:13:45.797Z,8.74
2023-03-31T21:16:51.919Z,8.72
2023-03-31T21:19:58.277Z,8.71
2023-03-31T21:23:06.260Z,8.69
2023-03-31T21:26:14.938Z,8.68
2023-03-31T21:29:20.790Z,8.64
2023-03-31T21:32:25.847Z,8.61
2023-03-31T21:35:33.797Z,8.56
2023-03-31T21:38:41.252Z,8.55
2023-03-31T21:41:49.090Z,8.55
2023-03-31T21:44:55.869Z,8.54
2023-03-31T21:48:04.356Z,8.50
2023-03-31T21:51:10.520Z,8.46
2023-03-31T21:54:16.333Z,8.44
2023-03-31T21:57:22.717Z,8.41
2023-03-31T22:00:31.065Z,8.38
2023-03-31T22:03:39.312Z,8.38
2023-03-31T22:06:46.879Z,8.36
2023-03-31T22:09:52.848Z,8.34
2023-03-31T22:12:59.709Z,8.32
2023-03-31T22:16:08.179Z,8.27
2023-03-31T22:19:15.857Z,8.23
2023-03-31T22:22:22.583Z,8.19
2023-03-31T22:25:28.866Z,8.16
2023-03-31T22:28:33.778Z,8.16
2023-03-31T22:31:40.556Z,8.13
2023-03-31T22:34:48.958Z,8.07
2023-03-31T22:37:54.873Z,8.05
2023-03-31T22:41:00.873Z,8.05
2023-03-31T22:44:06.913Z,8.04
2023-03-31T22:47:12.604Z,8.00
2023-03-31T22:50:19.787Z,7.98
2023-03-31T22:53:25.123Z,7.97
2023-03-31T22:56:31.081Z,7.96
2023-03-31T22:59:36.520Z,7.96
2023-03-31T23:02:43.101Z,7.94
2023-03-31T23:05:50.482Z,7.93
2023-03-31T23:08:57.285Z,7.93
2023-03-31T23:12:02.968Z,7.92
2023-03-31T23:15:09.493Z,7.90
2023-03-31T23:18:15.402Z,7.91
2023-03-31T23:21:21.819Z,7.90
2023-03-31T23:24:30.054Z,7.91
2023-03-31T23:27:35.800Z,7.91
2023-03-31T23:30:42.235Z,7.89
2023-03-31T23:33:48.972Z,7.86
2023-03-31T23:36:55.077Z,7.84
2023-03-31T23:40:00.367Z,7.81
2023-03-31T23:43:07.073Z,7.79
2023-03-31T23:46:14.062Z,7.76
2023-03-31T23:49:19.843Z,7.73
2023-03-31T23:52:26.888Z,7.69
2023-03-31T23:55:33.529Z,7.69
2023-03-31T23:58:40.240Z,7.68
